createdAt,value
2018-08-25T00:01:16.396Z,37.83
2018-08-25T00:03:44.887Z,37.49
2018-08-25T00:06:13.335Z,37.67
2018-08-25T00:08:41.813Z,37.86
2018-08-25T00:11:10.758Z,37.74
2018-08-25T00:13:39.393Z,38.29
2018-08-25T00:16:08.014Z,38.11
2018-08-25T00:18:36.563Z,38.48
2018-08-25T00:21:05.137Z,38.09
2018-08-25T00:23:33.648Z,38.97
2018-08-25T00:26:02.175Z,38.92
2018-08-25T00:28:30.638Z,38.78
2018-08-25T00:31:04.296Z,39.07
2018-08-25T00:33:32.762Z,38.58
2018-08-25T00:36:01.806Z,38.68
2018-08-25T00:38:30.318Z,39.06
2018-08-25T00:40:58.774Z,39.03
2018-08-25T00:43:27.261Z,38.32
2018-08-25T00:45:55.777Z,38.66
2018-08-25T00:48:24.329Z,38.45
2018-08-25T00:50:52.873Z,39.23
2018-08-25T00:53:21.352Z,39.34
2018-08-25T00:55:49.888Z,39.50
2018-08-25T00:58:18.444Z,38.91
2018-08-25T01:00:47.149Z,39.34
2018-08-25T01:03:15.582Z,39.40
2018-08-25T01:05:44.033Z,39.22
2018-08-25T01:08:12.519Z,38.89
2018-08-25T01:10:41.038Z,39.53
2018-08-25T01:13:09.856Z,39.03
2018-08-25T01:15:38.383Z,39.35
2018-08-25T01:18:07.045Z,39.86
2018-08-25T01:20:35.671Z,39.43
2018-08-25T01:23:04.200Z,40.30
2018-08-25T01:25:32.758Z,39.25
2018-08-25T01:28:01.315Z,40.01
2018-08-25T01:30:29.835Z,40.16
2018-08-25T01:32:58.332Z,40.17
2018-08-25T01:35:26.846Z,39.95
2018-08-25T01:37:55.333Z,40.20
2018-08-25T01:40:23.842Z,40.13
2018-08-25T01:42:52.318Z,40.40
2018-08-25T01:45:20.830Z,40.91
2018-08-25T01:47:49.372Z,41.01
2018-08-25T01:50:17.917Z,40.35
2018-08-25T01:52:46.439Z,41.05
2018-08-25T01:55:15.126Z,41.11
2018-08-25T01:57:43.648Z,40.31
2018-08-25T02:00:12.357Z,40.83
2018-08-25T02:02:40.895Z,41.12
2018-08-25T02:05:09.541Z,40.71
2018-08-25T02:07:38.047Z,40.31
2018-08-25T02:12:57.253Z,41.06
2018-08-25T02:15:25.846Z,40.79
2018-08-25T02:17:54.455Z,41.49
2018-08-25T02:20:23.091Z,41.00
2018-08-25T02:22:51.791Z,40.63
2018-08-25T02:25:20.283Z,40.49
2018-08-25T02:27:48.739Z,40.33
2018-08-25T02:30:17.336Z,40.53
2018-08-25T02:32:45.824Z,40.97
2018-08-25T02:35:14.455Z,40.33
2018-08-25T02:37:42.949Z,41.03
2018-08-25T02:40:11.805Z,40.80
2018-08-25T02:42:40.294Z,40.41
2018-08-25T02:45:08.804Z,40.30
2018-08-25T02:47:37.371Z,40.37
2018-08-25T02:50:05.820Z,40.93
2018-08-25T02:52:34.334Z,41.03
2018-08-25T02:55:02.886Z,41.05
2018-08-25T02:57:31.467Z,40.51
2018-08-25T03:00:00.000Z,40.54
2018-08-25T03:02:28.555Z,41.37
2018-08-25T03:04:57.068Z,40.86
2018-08-25T03:07:25.604Z,40.64
2018-08-25T03:09:54.121Z,41.57
2018-08-25T03:12:22.653Z,41.51
2018-08-25T03:14:51.178Z,41.11
2018-08-25T03:17:19.810Z,41.93
2018-08-25T03:19:48.338Z,42.51
2018-08-25T03:22:16.840Z,44.02
2018-08-25T03:24:45.279Z,44.56
2018-08-25T03:27:13.887Z,46.22
2018-08-25T03:29:42.384Z,46.78
2018-08-25T03:32:10.862Z,48.28
2018-08-25T03:34:39.358Z,49.21
2018-08-25T03:37:07.943Z,50.27
2018-08-25T03:39:36.478Z,50.70
2018-08-25T03:42:05.121Z,51.87
2018-08-25T03:44:33.600Z,52.23
2018-08-25T03:47:02.128Z,52.52
2018-08-25T03:49:30.681Z,52.71
2018-08-25T03:51:59.247Z,52.92
2018-08-25T03:54:27.781Z,53.00
2018-08-25T03:56:56.252Z,52.62
2018-08-25T03:59:24.731Z,53.24
2018-08-25T04:01:53.192Z,53.29
2018-08-25T04:04:21.730Z,53.95
2018-08-25T04:06:50.219Z,53.87
2018-08-25T04:09:18.768Z,54.40
2018-08-25T04:11:47.197Z,54.91
2018-08-25T04:14:15.676Z,55.02
2018-08-25T04:16:44.265Z,56.00
2018-08-25T04:19:21.331Z,56.83
2018-08-25T04:21:50.618Z,57.52
2018-08-25T04:24:19.052Z,57.27
2018-08-25T04:26:47.502Z,56.61
2018-08-25T04:29:15.966Z,56.16
2018-08-25T04:31:44.450Z,56.41
2018-08-25T04:34:13.036Z,56.48
2018-08-25T04:36:41.556Z,56.37
2018-08-25T04:39:11.523Z,56.57
2018-08-25T04:41:39.994Z,56.91
2018-08-25T04:44:08.852Z,56.61
2018-08-25T04:46:37.370Z,56.78
2018-08-25T04:49:06.144Z,56.79
2018-08-25T04:51:34.755Z,56.75
2018-08-25T04:54:03.502Z,57.52
2018-08-25T04:56:32.215Z,57.34
2018-08-25T04:59:00.710Z,57.75
2018-08-25T05:01:29.271Z,56.50
2018-08-25T05:03:57.841Z,56.43
2018-08-25T05:06:26.389Z,56.21
2018-08-25T05:08:54.937Z,56.25
2018-08-25T05:11:23.418Z,56.43
2018-08-25T05:13:52.021Z,56.87
2018-08-25T05:16:20.539Z,56.36
2018-08-25T05:18:49.012Z,57.03
2018-08-25T05:21:17.484Z,56.63
2018-08-25T05:23:46.015Z,56.84
2018-08-25T05:26:14.510Z,56.62
2018-08-25T05:28:43.046Z,56.89
2018-08-25T05:31:11.553Z,57.62
2018-08-25T05:33:40.059Z,57.11
2018-08-25T05:36:08.600Z,56.98
2018-08-25T05:38:37.999Z,57.31
2018-08-25T05:41:06.546Z,56.99
2018-08-25T05:43:35.157Z,56.50
2018-08-25T05:46:03.759Z,57.06
2018-08-25T05:48:32.667Z,57.03
2018-08-25T05:51:01.122Z,56.55
2018-08-25T05:53:29.686Z,56.90
2018-08-25T05:55:58.166Z,57.24
2018-08-25T05:58:26.704Z,56.88
2018-08-25T06:00:55.214Z,56.17
2018-08-25T06:03:23.695Z,56.33
2018-08-25T06:05:52.155Z,56.39
2018-08-25T06:08:20.659Z,55.68
2018-08-25T06:10:49.109Z,55.82
2018-08-25T06:13:17.631Z,55.18
2018-08-25T06:15:46.150Z,55.10
2018-08-25T06:18:14.827Z,55.57
2018-08-25T06:20:43.267Z,55.22
2018-08-25T06:23:11.795Z,55.04
2018-08-25T06:25:40.358Z,54.30
2018-08-25T06:28:08.973Z,54.44
2018-08-25T06:30:37.538Z,54.14
2018-08-25T06:33:06.418Z,54.21
2018-08-25T06:35:34.927Z,53.97
2018-08-25T06:38:03.689Z,53.47
2018-08-25T06:40:32.267Z,53.41
2018-08-25T06:43:00.745Z,51.96
2018-08-25T06:45:29.312Z,52.96
2018-08-25T06:47:57.964Z,52.34
2018-08-25T06:50:26.547Z,52.00
2018-08-25T06:52:55.108Z,51.45
2018-08-25T06:55:23.661Z,52.23
2018-08-25T06:57:52.195Z,51.82
2018-08-25T07:00:20.708Z,51.55
2018-08-25T07:02:49.173Z,51.13
2018-08-25T07:05:17.994Z,50.91
2018-08-25T07:07:46.475Z,50.54
2018-08-25T07:10:15.205Z,51.21
2018-08-25T07:12:43.748Z,48.50
2018-08-25T07:15:12.183Z,48.38
2018-08-25T07:17:40.714Z,47.75
2018-08-25T07:20:09.175Z,48.85
2018-08-25T07:22:37.638Z,48.68
2018-08-25T07:25:06.795Z,49.24
2018-08-25T07:27:35.263Z,49.02
2018-08-25T07:30:03.784Z,48.84
2018-08-25T07:32:32.302Z,49.30
2018-08-25T07:35:00.847Z,48.57
2018-08-25T07:37:29.350Z,49.22
2018-08-25T07:39:57.879Z,48.69
2018-08-25T07:42:26.429Z,47.08
2018-08-25T07:44:55.009Z,45.77
2018-08-25T07:47:23.516Z,44.36
2018-08-25T07:49:52.105Z,44.72
2018-08-25T07:52:20.525Z,45.33
2018-08-25T07:54:48.995Z,45.24
2018-08-25T07:57:17.549Z,46.43
2018-08-25T07:59:46.169Z,45.91
2018-08-25T08:02:14.733Z,46.28
2018-08-25T08:04:43.574Z,46.50
2018-08-25T08:07:11.995Z,46.92
2018-08-25T08:09:47.176Z,47.38
2018-08-25T08:12:15.829Z,47.00
2018-08-25T08:14:44.290Z,47.12
2018-08-25T08:17:12.804Z,46.29
2018-08-25T08:19:41.406Z,46.77
2018-08-25T08:22:09.970Z,46.72
2018-08-25T08:24:38.452Z,46.33
2018-08-25T08:27:07.142Z,45.98
2018-08-25T08:29:35.751Z,45.21
2018-08-25T08:32:04.241Z,44.63
2018-08-25T08:34:32.773Z,45.07
2018-08-25T08:37:01.280Z,43.38
2018-08-25T08:39:29.852Z,43.17
2018-08-25T08:41:58.301Z,43.55
2018-08-25T08:44:26.867Z,42.56
2018-08-25T08:46:55.433Z,42.55
2018-08-25T08:49:23.899Z,42.13
2018-08-25T08:51:52.320Z,42.35
2018-08-25T08:54:20.953Z,42.36
2018-08-25T08:56:49.434Z,40.85
2018-08-25T08:59:17.898Z,40.93
2018-08-25T09:01:46.904Z,39.69
2018-08-25T09:04:15.496Z,40.42
2018-08-25T09:06:43.979Z,40.14
2018-08-25T09:09:12.521Z,40.46
2018-08-25T09:11:41.451Z,41.28
2018-08-25T09:14:09.937Z,42.06
2018-08-25T09:16:38.449Z,42.49
2018-08-25T09:19:07.019Z,41.06
2018-08-25T09:21:35.537Z,40.75
2018-08-25T09:24:04.127Z,40.76
2018-08-25T09:26:32.648Z,40.81
2018-08-25T09:29:01.254Z,39.40
2018-08-25T09:31:29.823Z,38.74
2018-08-25T09:33:58.367Z,37.67
2018-08-25T09:36:27.043Z,37.66
2018-08-25T09:38:55.599Z,36.45
2018-08-25T09:41:24.090Z,36.79
2018-08-25T09:43:52.588Z,36.98
2018-08-25T09:46:21.080Z,38.03
2018-08-25T09:48:49.827Z,37.65
2018-08-25T09:51:18.291Z,36.35
2018-08-25T09:53:46.765Z,37.22
2018-08-25T09:56:16.541Z,36.48
2018-08-25T09:58:45.198Z,36.02
2018-08-25T10:01:19.111Z,36.64
2018-08-25T10:03:48.004Z,37.10
2018-08-25T10:06:16.589Z,36.17
2018-08-25T10:08:45.467Z,35.67
2018-08-25T10:11:14.053Z,34.00
2018-08-25T10:13:42.698Z,32.99
2018-08-25T10:16:11.391Z,33.49
2018-08-25T10:18:39.960Z,33.13
2018-08-25T10:21:08.799Z,34.30
2018-08-25T10:23:37.480Z,34.92
2018-08-25T10:26:06.173Z,34.91
2018-08-25T10:28:34.753Z,35.14
2018-08-25T10:31:03.236Z,35.58
2018-08-25T10:33:31.739Z,35.73
2018-08-25T10:36:00.294Z,35.22
2018-08-25T10:38:28.747Z,35.82
2018-08-25T10:40:57.314Z,35.58
2018-08-25T10:43:25.797Z,34.63
2018-08-25T10:45:54.318Z,33.18
2018-08-25T10:48:22.757Z,32.41
2018-08-25T10:50:51.331Z,28.10
2018-08-25T10:53:20.349Z,24.72
2018-08-25T10:55:48.872Z,23.61
2018-08-25T10:58:17.403Z,23.02
2018-08-25T11:00:46.067Z,24.12
2018-08-25T11:03:14.556Z,25.28
2018-08-25T11:05:43.159Z,26.46
2018-08-25T11:08:11.712Z,24.25
2018-08-25T11:10:40.684Z,24.66
2018-08-25T11:13:09.231Z,24.59
2018-08-25T11:15:37.791Z,23.12
2018-08-25T11:18:07.034Z,23.10
2018-08-25T11:20:35.633Z,24.27
2018-08-25T11:23:04.265Z,23.72
2018-08-25T11:25:32.787Z,22.07
2018-08-25T11:28:01.311Z,20.12
2018-08-25T11:30:29.830Z,18.25
2018-08-25T11:32:58.420Z,18.21
2018-08-25T11:35:26.957Z,18.05
2018-08-25T11:37:55.475Z,19.21
2018-08-25T11:40:24.010Z,19.41
2018-08-25T11:42:52.559Z,19.65
2018-08-25T11:45:21.095Z,19.87
2018-08-25T11:47:49.677Z,20.94
2018-08-25T11:50:18.239Z,20.75
2018-08-25T11:52:46.776Z,22.11
2018-08-25T11:55:15.391Z,21.66
2018-08-25T11:57:44.010Z,23.34
2018-08-25T12:00:12.519Z,24.45
2018-08-25T12:02:41.091Z,25.13
2018-08-25T12:05:09.630Z,26.31
2018-08-25T12:07:38.199Z,26.70
2018-08-25T12:10:06.843Z,27.15
2018-08-25T12:12:35.413Z,26.99
2018-08-25T12:15:03.992Z,26.21
2018-08-25T12:17:32.689Z,26.24
2018-08-25T12:20:01.232Z,26.75
2018-08-25T12:22:29.729Z,27.15
2018-08-25T12:24:58.272Z,27.75
2018-08-25T12:27:26.867Z,28.87
2018-08-25T12:29:55.469Z,29.55
2018-08-25T12:32:24.028Z,29.72
2018-08-25T12:34:52.527Z,29.12
2018-08-25T12:37:21.033Z,28.91
2018-08-25T12:39:49.496Z,28.64
2018-08-25T12:42:17.990Z,29.45
2018-08-25T12:44:46.435Z,29.94
2018-08-25T12:47:14.975Z,30.65
2018-08-25T12:49:43.495Z,30.18
2018-08-25T12:52:12.685Z,31.49
2018-08-25T12:54:41.428Z,30.73
2018-08-25T12:57:10.323Z,31.94
2018-08-25T12:59:47.170Z,32.04
2018-08-25T13:02:15.835Z,31.73
2018-08-25T13:04:44.374Z,31.74
2018-08-25T13:07:14.480Z,31.74
2018-08-25T13:09:43.912Z,31.78
2018-08-25T13:12:13.119Z,33.01
2018-08-25T13:14:41.731Z,32.93
2018-08-25T13:17:10.237Z,36.30
2018-08-25T13:19:38.881Z,37.72
2018-08-25T13:22:07.595Z,38.31
2018-08-25T13:24:36.135Z,39.79
2018-08-25T13:27:04.881Z,40.70
2018-08-25T13:29:33.475Z,41.39
2018-08-25T13:32:02.089Z,41.53
2018-08-25T13:34:31.252Z,41.18
2018-08-25T13:37:00.042Z,41.47
2018-08-25T13:39:29.610Z,40.38
2018-08-25T13:41:58.164Z,39.96
2018-08-25T13:44:26.687Z,39.88
2018-08-25T13:46:55.308Z,38.87
2018-08-25T13:49:23.851Z,38.44
2018-08-25T13:51:52.358Z,37.53
2018-08-25T13:54:22.383Z,39.12
2018-08-25T13:56:51.244Z,38.36
2018-08-25T13:59:20.823Z,37.17
2018-08-25T14:01:49.316Z,38.22
2018-08-25T14:04:17.916Z,39.05
2018-08-25T14:06:47.377Z,38.73
2018-08-25T14:09:15.937Z,38.31
2018-08-25T14:11:44.759Z,37.99
2018-08-25T14:14:13.368Z,40.18
2018-08-25T14:16:41.904Z,40.96
2018-08-25T14:19:10.583Z,41.71
2018-08-25T14:21:39.134Z,41.91
2018-08-25T14:24:07.740Z,41.76
2018-08-25T14:26:36.251Z,40.85
2018-08-25T14:29:04.912Z,40.33
2018-08-25T14:31:33.433Z,39.78
2018-08-25T14:34:01.901Z,38.43
2018-08-25T14:36:30.426Z,39.19
2018-08-25T14:38:58.906Z,39.49
2018-08-25T14:41:27.489Z,39.68
2018-08-25T14:43:56.024Z,39.35
2018-08-25T14:46:24.420Z,39.25
2018-08-25T14:48:52.839Z,39.56
2018-08-25T14:51:21.356Z,39.12
2018-08-25T14:53:49.848Z,39.07
2018-08-25T14:56:18.374Z,38.79
2018-08-25T14:58:46.824Z,39.73
2018-08-25T15:01:15.266Z,39.42
2018-08-25T15:03:43.791Z,39.58
2018-08-25T15:06:12.310Z,39.08
2018-08-25T15:08:41.087Z,38.94
2018-08-25T15:11:09.580Z,38.49
2018-08-25T15:13:38.220Z,39.21
2018-08-25T15:16:06.813Z,38.11
2018-08-25T15:18:35.486Z,37.84
2018-08-25T15:21:04.087Z,37.26
2018-08-25T15:23:32.633Z,37.24
2018-08-25T15:26:01.121Z,37.35
2018-08-25T15:28:29.717Z,37.21
2018-08-25T15:30:58.314Z,36.91
2018-08-25T15:33:26.896Z,35.93
2018-08-25T15:35:55.565Z,37.45
2018-08-25T15:38:24.235Z,37.82
2018-08-25T15:40:52.868Z,37.65
2018-08-25T15:43:21.420Z,37.99
2018-08-25T15:45:49.985Z,37.97
2018-08-25T15:48:18.602Z,37.74
2018-08-25T15:50:47.141Z,37.21
2018-08-25T15:53:15.880Z,37.62
2018-08-25T15:55:44.517Z,37.10
2018-08-25T15:58:13.105Z,36.92
2018-08-25T16:00:41.703Z,37.10
2018-08-25T16:03:10.231Z,36.49
2018-08-25T16:05:38.827Z,36.47
2018-08-25T16:08:07.414Z,35.82
2018-08-25T16:10:36.011Z,36.33
2018-08-25T16:13:04.594Z,35.58
2018-08-25T16:15:33.133Z,36.35
2018-08-25T16:18:01.947Z,35.97
2018-08-25T16:20:30.969Z,36.05
2018-08-25T16:22:59.476Z,36.91
2018-08-25T16:25:28.434Z,37.72
2018-08-25T16:27:57.154Z,37.54
2018-08-25T16:30:25.923Z,36.91
2018-08-25T16:32:54.543Z,37.54
2018-08-25T16:35:23.118Z,36.75
2018-08-25T16:37:51.739Z,36.23
2018-08-25T16:40:20.407Z,35.90
2018-08-25T16:42:48.931Z,35.66
2018-08-25T16:45:17.535Z,36.06
2018-08-25T16:47:46.060Z,35.17
2018-08-25T16:50:14.631Z,35.74
2018-08-25T16:52:43.643Z,35.83
2018-08-25T16:55:12.462Z,35.54
2018-08-25T16:57:41.165Z,35.92
2018-08-25T17:00:09.854Z,36.01
2018-08-25T17:02:38.508Z,36.00
2018-08-25T17:05:07.167Z,36.00
2018-08-25T17:07:35.705Z,36.78
2018-08-25T17:10:04.323Z,36.77
2018-08-25T17:12:33.039Z,37.07
2018-08-25T17:15:01.598Z,37.03
2018-08-25T17:17:30.937Z,36.39
2018-08-25T17:19:59.511Z,36.71
2018-08-25T17:22:28.225Z,37.21
2018-08-25T17:24:57.691Z,37.03
2018-08-25T17:30:05.989Z,37.91
2018-08-25T17:32:34.617Z,38.23
2018-08-25T17:35:03.601Z,38.56
2018-08-25T17:37:32.199Z,37.84
2018-08-25T17:40:01.288Z,38.76
2018-08-25T17:42:29.883Z,38.69
2018-08-25T17:44:58.390Z,38.70
2018-08-25T17:47:27.244Z,39.76
2018-08-25T17:49:55.967Z,39.29
2018-08-25T17:52:24.547Z,40.12
2018-08-25T17:54:53.198Z,40.23
2018-08-25T17:57:21.931Z,39.65
2018-08-25T17:59:50.511Z,40.08
2018-08-25T18:02:25.353Z,40.50
2018-08-25T18:04:54.136Z,40.84
2018-08-25T18:07:22.701Z,40.59
2018-08-25T18:09:53.437Z,40.47
2018-08-25T18:12:23.042Z,40.68
2018-08-25T18:14:53.080Z,41.44
2018-08-25T18:17:22.530Z,41.64
2018-08-25T18:19:51.539Z,41.59
2018-08-25T18:22:20.143Z,40.66
2018-08-25T18:24:48.697Z,41.23
2018-08-25T18:27:17.538Z,40.64
2018-08-25T18:29:46.400Z,40.57
2018-08-25T18:32:15.070Z,41.19
2018-08-25T18:34:43.761Z,40.86
2018-08-25T18:37:12.373Z,41.47
2018-08-25T18:39:41.108Z,40.42
2018-08-25T18:42:09.735Z,40.86
2018-08-25T18:44:38.361Z,40.71
2018-08-25T18:47:06.975Z,40.38
2018-08-25T18:49:35.836Z,40.64
2018-08-25T18:52:04.447Z,41.07
2018-08-25T18:54:33.013Z,41.04
2018-08-25T18:57:01.549Z,41.11
2018-08-25T18:59:30.252Z,40.89
2018-08-25T19:01:59.042Z,41.17
2018-08-25T19:04:27.585Z,41.63
2018-08-25T19:06:56.150Z,41.46
2018-08-25T19:12:05.271Z,42.00
2018-08-25T19:14:34.437Z,42.35
2018-08-25T19:17:03.673Z,42.34
2018-08-25T19:19:32.834Z,42.58
2018-08-25T19:22:01.743Z,42.78
2018-08-25T19:24:30.461Z,42.26
2018-08-25T19:27:02.527Z,42.91
2018-08-25T19:29:31.437Z,42.93
2018-08-25T19:32:00.628Z,43.22
2018-08-25T19:34:31.146Z,43.60
2018-08-25T19:37:00.435Z,43.46
2018-08-25T19:39:29.672Z,44.23
2018-08-25T19:41:59.861Z,44.98
2018-08-25T19:44:28.474Z,45.12
2018-08-25T19:46:57.258Z,44.27
2018-08-25T19:49:25.928Z,44.61
2018-08-25T19:51:54.484Z,45.40
2018-08-25T19:54:23.041Z,44.87
2018-08-25T19:56:52.162Z,45.13
2018-08-25T19:59:20.711Z,45.12
2018-08-25T20:01:49.891Z,45.67
2018-08-25T20:04:18.564Z,45.37
2018-08-25T20:06:47.193Z,45.69
2018-08-25T20:09:15.766Z,45.60
2018-08-25T20:11:44.956Z,45.23
2018-08-25T20:14:13.588Z,45.46
2018-08-25T20:16:42.256Z,46.09
2018-08-25T20:19:10.793Z,46.26
2018-08-25T20:21:40.227Z,46.94
2018-08-25T20:24:08.958Z,46.39
2018-08-25T20:26:37.649Z,47.15
2018-08-25T20:29:06.240Z,46.72
2018-08-25T20:31:34.959Z,47.02
2018-08-25T20:34:03.741Z,47.02
2018-08-25T20:36:32.467Z,47.54
2018-08-25T20:39:01.110Z,47.68
2018-08-25T20:41:29.817Z,47.36
2018-08-25T20:43:58.492Z,48.40
2018-08-25T20:46:27.106Z,48.36
2018-08-25T20:48:55.716Z,48.37
2018-08-25T20:51:24.489Z,48.77
2018-08-25T20:53:53.143Z,48.31
2018-08-25T20:56:21.831Z,49.01
2018-08-25T20:58:50.490Z,48.84
2018-08-25T21:01:19.101Z,48.75
2018-08-25T21:03:47.697Z,49.12
2018-08-25T21:06:16.354Z,48.75
2018-08-25T21:08:44.988Z,49.22
2018-08-25T21:11:13.907Z,49.49
2018-08-25T21:13:42.489Z,49.35
2018-08-25T21:16:11.316Z,49.70
2018-08-25T21:18:40.287Z,49.75
2018-08-25T21:21:08.881Z,49.64
2018-08-25T21:23:37.658Z,49.93
2018-08-25T21:26:06.624Z,49.78
2018-08-25T21:28:35.238Z,50.05
2018-08-25T21:31:03.970Z,50.68
2018-08-25T21:33:32.646Z,50.79
2018-08-25T21:36:01.323Z,50.74
2018-08-25T21:38:30.114Z,51.56
2018-08-25T21:40:58.715Z,51.18
2018-08-25T21:43:27.615Z,51.69
2018-08-25T21:45:56.209Z,51.39
2018-08-25T21:48:24.833Z,51.02
2018-08-25T21:50:53.510Z,51.38
2018-08-25T21:53:22.187Z,51.69
2018-08-25T21:55:50.793Z,51.83
2018-08-25T21:58:19.387Z,51.89
2018-08-25T22:00:53.101Z,51.85
2018-08-25T22:03:21.639Z,51.58
2018-08-25T22:05:51.171Z,52.52
2018-08-25T22:08:19.742Z,52.16
2018-08-25T22:10:48.293Z,52.56
2018-08-25T22:13:16.813Z,52.04
2018-08-25T22:15:45.462Z,52.77
2018-08-25T22:18:14.077Z,52.71
2018-08-25T22:20:42.687Z,52.66
2018-08-25T22:23:11.203Z,53.00
2018-08-25T22:25:39.897Z,52.77
2018-08-25T22:28:08.436Z,53.51
2018-08-25T22:30:37.021Z,53.31
2018-08-25T22:33:05.535Z,54.00
2018-08-25T22:35:34.414Z,53.78
2018-08-25T22:38:03.020Z,53.79
2018-08-25T22:40:31.737Z,54.06
2018-08-25T22:43:00.282Z,53.85
2018-08-25T22:45:28.829Z,54.32
2018-08-25T22:47:57.406Z,53.39
2018-08-25T22:50:25.968Z,53.81
2018-08-25T22:52:54.404Z,53.51
2018-08-25T22:55:25.470Z,53.34
2018-08-25T22:57:54.128Z,53.56
2018-08-25T23:00:22.634Z,53.20
2018-08-25T23:02:51.174Z,53.88
2018-08-25T23:05:19.718Z,53.36
2018-08-25T23:07:48.238Z,53.33
2018-08-25T23:10:16.750Z,53.64
2018-08-25T23:12:45.250Z,53.81
2018-08-25T23:15:13.840Z,53.57
2018-08-25T23:17:42.315Z,53.60
2018-08-25T23:20:10.939Z,54.12
2018-08-25T23:22:39.515Z,53.90
2018-08-25T23:25:08.061Z,53.99
2018-08-25T23:27:36.557Z,54.04
2018-08-25T23:30:05.122Z,54.48
2018-08-25T23:32:33.738Z,53.76
2018-08-25T23:35:02.321Z,54.82
2018-08-25T23:37:30.899Z,54.83
2018-08-25T23:39:59.453Z,55.26
2018-08-25T23:42:27.982Z,54.71
2018-08-25T23:44:56.548Z,55.18
2018-08-25T23:47:25.089Z,54.64
2018-08-25T23:49:53.608Z,54.67
2018-08-25T23:52:22.129Z,55.36
2018-08-25T23:54:50.655Z,55.63
2018-08-25T23:57:19.163Z,55.10
2018-08-25T23:59:47.730Z,55.08
